Glennallen, Alaska
Current Conditions -  °F | °C
As of 3:53 PM on Friday 28 Nov 2014 (Local Time) from PAGK Reporting Station
Overcast Overcast  
Wind Chill: -10°   Ceiling: 600
Heat Index:   Visibility: 10mi
Dew Point: -5°   Wind: 5mph
Humidity: 79%   Direction: 360°N
Pressure: 30.26"   Gusts: NA
Location:  62.11°N, 145.55°W
Report Text: PAGK 290053Z AUTO 36004KT 10SM OVC006 M18/M21 A3026 RMK AO2 SLP308 T11781206 TSNO
Loading
Personal Weather Stations






























Interactive Weather Map New forecast layout! Learn more

10-Day Weather Forecast

Advertisements
Track Severe Weather on mobile